Terminal Aerodrome Forecast
Issued by NWS Cleveland, OH

Home | Current Version | Previous Version | Text Only | Print | Product List | Glossary On
Versions: 1 2 3 4 5 6 7 8 9 10 11 12 13 14 15 16 17 18 19 20 21 22
000
FTUS41 KCLE 102341
TAFERI
TAF
KERI 102341Z 1100/1124 21010KT P6SM -SHSN OVC035
     FM110100 21010KT P6SM OVC035
     FM110700 20007KT 1 1/2SM -SN BR OVC015
     FM111400 17010KT 1/2SM SN FZFG OVC007
     FM111900 16010G20KT 1 1/2SM -SN BLSN BR OVC007=

USA.gov is the U.S. government's official web portal to all federal, state and local government web resources and services.